createdAt,value
2022-07-26T00:00:33.388Z,70.60
2022-07-26T00:03:18.700Z,70.70
2022-07-26T00:06:04.270Z,71.20
2022-07-26T00:08:49.762Z,71.10
2022-07-26T00:11:35.354Z,70.50
2022-07-26T00:14:20.695Z,70.80
2022-07-26T00:17:06.161Z,71.00
2022-07-26T00:20:10.046Z,70.70
2022-07-26T00:23:33.016Z,69.80
2022-07-26T00:26:36.887Z,68.90
2022-07-26T00:29:22.197Z,70.60
2022-07-26T00:32:07.578Z,70.60
2022-07-26T00:34:53.111Z,70.90
2022-07-26T00:37:39.123Z,70.90
2022-07-26T00:40:24.909Z,71.30
2022-07-26T00:43:10.498Z,71.50
2022-07-26T00:45:56.081Z,71.50
2022-07-26T00:48:41.157Z,71.70
2022-07-26T00:51:26.586Z,71.80
2022-07-26T00:54:11.880Z,72.00
2022-07-26T00:56:57.309Z,72.00
2022-07-26T00:59:43.013Z,71.80
2022-07-26T01:02:28.299Z,72.30
2022-07-26T01:05:13.891Z,71.40
2022-07-26T01:07:59.406Z,72.40
2022-07-26T01:10:44.802Z,72.20
2022-07-26T01:13:34.944Z,72.40
2022-07-26T01:16:20.976Z,71.10
2022-07-26T01:19:06.379Z,70.30
2022-07-26T01:21:51.895Z,71.30
2022-07-26T01:24:37.326Z,71.80
2022-07-26T01:27:22.796Z,72.60
2022-07-26T01:30:11.074Z,72.30
2022-07-26T01:32:56.689Z,73.00
2022-07-26T01:35:42.107Z,72.90
2022-07-26T01:38:28.559Z,72.90
2022-07-26T01:41:14.059Z,72.60
2022-07-26T01:43:59.184Z,72.30
2022-07-26T01:46:44.661Z,72.20
2022-07-26T01:49:30.121Z,72.30
2022-07-26T01:52:15.572Z,72.70
2022-07-26T01:55:01.251Z,72.80
2022-07-26T01:57:46.760Z,72.60
2022-07-26T02:00:32.535Z,71.70
2022-07-26T02:03:17.781Z,71.70
2022-07-26T02:06:04.875Z,71.00
2022-07-26T02:08:50.627Z,70.90
2022-07-26T02:11:36.022Z,70.50
2022-07-26T02:14:25.694Z,70.30
2022-07-26T02:17:13.483Z,70.40
2022-07-26T02:19:59.089Z,71.00
2022-07-26T02:22:44.506Z,70.20
2022-07-26T02:25:30.048Z,69.80
2022-07-26T02:28:16.162Z,69.00
2022-07-26T02:31:01.528Z,67.90
2022-07-26T02:33:46.807Z,67.60
2022-07-26T02:36:32.093Z,67.90
2022-07-26T02:39:17.776Z,66.90
2022-07-26T02:42:03.796Z,67.10
2022-07-26T02:44:49.036Z,66.70
2022-07-26T02:47:34.540Z,67.00
2022-07-26T02:50:21.107Z,66.90
2022-07-26T02:53:06.173Z,67.10
2022-07-26T02:55:51.722Z,66.60
2022-07-26T02:58:37.732Z,66.90
2022-07-26T03:01:22.801Z,67.10
2022-07-26T03:04:08.285Z,66.80
2022-07-26T03:06:53.930Z,66.00
2022-07-26T03:09:39.277Z,66.40
2022-07-26T03:12:25.467Z,65.90
2022-07-26T03:15:11.643Z,66.30
2022-07-26T03:17:56.834Z,65.90
2022-07-26T03:20:42.196Z,65.70
2022-07-26T03:23:27.705Z,66.00
2022-07-26T03:26:13.147Z,66.00
2022-07-26T03:28:58.388Z,66.00
2022-07-26T03:31:43.897Z,65.70
2022-07-26T03:34:29.246Z,65.50
2022-07-26T03:37:14.660Z,66.00
2022-07-26T03:40:00.102Z,66.10
2022-07-26T03:42:46.749Z,66.30
2022-07-26T03:45:31.911Z,66.50
2022-07-26T03:48:17.269Z,65.20
2022-07-26T03:51:02.813Z,65.40
2022-07-26T03:53:48.295Z,65.80
2022-07-26T03:56:33.918Z,65.70
2022-07-26T03:59:19.013Z,65.10
2022-07-26T04:02:04.718Z,65.40
2022-07-26T04:04:49.949Z,65.10
2022-07-26T04:07:52.424Z,65.40
2022-07-26T04:10:38.629Z,65.00
2022-07-26T04:13:24.404Z,65.10
2022-07-26T04:16:09.815Z,65.80
2022-07-26T04:18:55.765Z,65.70
2022-07-26T04:21:41.736Z,66.00
2022-07-26T04:24:27.064Z,65.30
2022-07-26T04:27:12.653Z,66.10
2022-07-26T04:29:57.961Z,67.00
2022-07-26T04:32:45.884Z,66.10
2022-07-26T04:35:33.238Z,66.60
2022-07-26T04:38:18.745Z,67.20
2022-07-26T04:41:04.316Z,67.20
2022-07-26T04:43:49.677Z,66.60
2022-07-26T04:46:35.022Z,66.90
2022-07-26T04:49:20.406Z,68.00
2022-07-26T04:52:05.915Z,67.80
2022-07-26T04:54:51.322Z,67.60
2022-07-26T04:57:37.273Z,67.70
2022-07-26T05:00:25.045Z,67.30
2022-07-26T05:03:10.530Z,66.70
2022-07-26T05:05:56.023Z,66.40
2022-07-26T05:08:43.260Z,66.30
2022-07-26T05:11:28.495Z,66.00
2022-07-26T05:14:13.845Z,66.00
2022-07-26T05:16:59.848Z,65.70
2022-07-26T05:19:54.554Z,65.80
2022-07-26T05:22:40.773Z,65.60
2022-07-26T05:25:26.475Z,64.00
2022-07-26T05:28:11.759Z,63.40
2022-07-26T05:30:57.265Z,63.30
2022-07-26T05:33:42.454Z,63.40
2022-07-26T05:36:27.855Z,63.50
2022-07-26T05:39:16.029Z,63.70
2022-07-26T05:42:01.479Z,64.60
2022-07-26T05:44:46.918Z,64.50
2022-07-26T05:47:32.699Z,63.80
2022-07-26T05:50:18.440Z,64.40
2022-07-26T05:53:03.839Z,64.50
2022-07-26T05:55:49.442Z,65.00
2022-07-26T05:58:34.980Z,65.00
2022-07-26T06:01:20.231Z,64.90
2022-07-26T06:04:06.274Z,63.90
2022-07-26T06:06:52.863Z,64.00
2022-07-26T06:09:38.328Z,63.80
2022-07-26T06:12:23.771Z,64.00
2022-07-26T06:15:15.336Z,64.80
2022-07-26T06:18:01.384Z,64.90
2022-07-26T06:20:47.825Z,64.70
2022-07-26T06:23:34.676Z,63.70
2022-07-26T06:26:20.817Z,62.00
2022-07-26T06:29:06.071Z,62.10
2022-07-26T06:31:51.905Z,61.80
2022-07-26T06:34:37.204Z,61.50
2022-07-26T06:37:22.647Z,60.70
2022-07-26T06:40:09.731Z,60.70
2022-07-26T06:42:54.842Z,60.10
2022-07-26T06:45:40.513Z,60.50
2022-07-26T06:48:25.762Z,61.30
2022-07-26T06:51:11.351Z,62.10
2022-07-26T06:53:56.787Z,62.30
2022-07-26T06:56:46.073Z,62.70
2022-07-26T06:59:31.510Z,63.10
2022-07-26T07:02:16.881Z,63.80
2022-07-26T07:05:03.748Z,64.00
2022-07-26T07:07:49.365Z,64.40
2022-07-26T07:10:34.834Z,64.50
2022-07-26T07:13:20.461Z,64.60
2022-07-26T07:16:06.299Z,64.80
2022-07-26T07:18:51.527Z,64.80
2022-07-26T07:21:36.988Z,64.30
2022-07-26T07:24:23.389Z,64.20
2022-07-26T07:27:09.290Z,65.00
2022-07-26T07:29:56.141Z,65.50
2022-07-26T07:32:41.361Z,64.80
2022-07-26T07:35:31.865Z,63.70
2022-07-26T07:38:17.957Z,62.50
2022-07-26T07:41:04.299Z,63.40
2022-07-26T07:43:49.726Z,63.40
2022-07-26T07:46:35.038Z,63.20
2022-07-26T07:49:20.567Z,64.00
2022-07-26T07:52:06.527Z,63.60
2022-07-26T07:54:51.765Z,63.70
2022-07-26T07:57:37.403Z,64.10
2022-07-26T08:00:27.064Z,62.20
2022-07-26T08:03:12.839Z,61.90
2022-07-26T08:06:05.548Z,62.70
2022-07-26T08:08:51.077Z,62.30
2022-07-26T08:11:36.624Z,62.00
2022-07-26T08:14:27.037Z,61.60
2022-07-26T08:17:12.391Z,61.10
2022-07-26T08:20:00.094Z,60.90
2022-07-26T08:22:46.403Z,60.70
2022-07-26T08:25:31.921Z,61.10
2022-07-26T08:28:37.790Z,60.40
2022-07-26T08:31:23.327Z,61.10
2022-07-26T08:34:08.622Z,61.10
2022-07-26T08:37:15.569Z,61.20
2022-07-26T08:39:59.743Z,61.10
2022-07-26T08:42:56.684Z,61.50
2022-07-26T08:45:42.528Z,61.90
2022-07-26T08:48:29.038Z,62.00
2022-07-26T08:51:16.048Z,62.40
2022-07-26T08:54:05.664Z,62.20
2022-07-26T08:56:53.429Z,61.50
2022-07-26T08:59:39.090Z,60.80
2022-07-26T09:02:40.714Z,60.60
2022-07-26T09:05:35.223Z,60.30
2022-07-26T09:08:26.687Z,59.30
2022-07-26T09:11:24.403Z,59.20
2022-07-26T09:14:10.097Z,59.30
2022-07-26T09:16:59.879Z,59.70
2022-07-26T09:19:46.475Z,59.70
2022-07-26T09:22:31.703Z,57.80
2022-07-26T09:25:22.077Z,58.40
2022-07-26T09:28:29.503Z,58.70
2022-07-26T09:31:22.924Z,58.60
2022-07-26T09:34:08.840Z,57.00
2022-07-26T09:36:55.314Z,57.10
2022-07-26T09:39:58.802Z,56.60
2022-07-26T09:42:55.325Z,55.30
2022-07-26T09:45:40.862Z,56.20
2022-07-26T09:48:36.506Z,55.30
2022-07-26T09:51:38.488Z,55.00
2022-07-26T09:54:30.021Z,54.20
2022-07-26T09:57:20.668Z,54.60
2022-07-26T10:00:07.857Z,54.60
2022-07-26T10:02:54.323Z,54.90
2022-07-26T10:05:40.253Z,54.80
2022-07-26T10:08:25.737Z,54.00
2022-07-26T10:11:11.706Z,53.50
2022-07-26T10:13:57.965Z,54.00
2022-07-26T10:16:43.289Z,53.80
2022-07-26T10:19:45.846Z,53.70
2022-07-26T10:22:44.136Z,54.00
2022-07-26T10:25:32.202Z,53.40
2022-07-26T10:28:29.365Z,53.60
2022-07-26T10:31:21.226Z,53.50
2022-07-26T10:34:08.131Z,52.70
2022-07-26T10:37:05.502Z,52.50
2022-07-26T10:40:14.835Z,51.50
2022-07-26T10:43:39.711Z,51.60
2022-07-26T10:46:19.984Z,51.50
2022-07-26T10:49:09.104Z,51.60
2022-07-26T10:52:06.791Z,51.20
2022-07-26T10:55:01.025Z,52.10
2022-07-26T10:57:48.388Z,51.80
2022-07-26T11:00:34.667Z,51.60
2022-07-26T11:03:21.156Z,50.90
2022-07-26T11:06:12.797Z,50.80
2022-07-26T11:08:58.275Z,50.40
2022-07-26T11:11:46.880Z,49.60
2022-07-26T11:14:32.457Z,49.00
2022-07-26T11:17:25.224Z,48.70
2022-07-26T11:20:11.140Z,48.40
2022-07-26T11:22:56.423Z,47.30
2022-07-26T11:25:41.659Z,47.80
2022-07-26T11:28:27.139Z,48.50
2022-07-26T11:31:15.716Z,48.50
2022-07-26T11:34:03.012Z,48.90
2022-07-26T11:36:50.107Z,48.60
2022-07-26T11:39:36.307Z,49.00
2022-07-26T11:42:21.955Z,49.60
2022-07-26T11:45:10.459Z,50.30
2022-07-26T11:47:58.766Z,50.00
2022-07-26T11:50:46.845Z,50.10
2022-07-26T11:53:37.229Z,50.20
2022-07-26T11:56:23.322Z,50.70
2022-07-26T11:59:13.769Z,50.90
2022-07-26T12:02:00.270Z,50.10
2022-07-26T12:04:45.800Z,49.10
2022-07-26T12:07:31.692Z,49.00
2022-07-26T12:10:17.158Z,49.30
2022-07-26T12:13:14.312Z,49.00
2022-07-26T12:15:59.848Z,49.80
2022-07-26T12:18:51.656Z,49.80
2022-07-26T12:21:41.881Z,49.90
2022-07-26T12:24:39.926Z,48.80
2022-07-26T12:27:34.562Z,48.50
2022-07-26T12:30:20.273Z,45.70
2022-07-26T12:33:05.821Z,46.00
2022-07-26T12:35:51.206Z,46.60
2022-07-26T12:38:40.712Z,46.20
2022-07-26T12:41:37.828Z,45.70
2022-07-26T12:44:23.680Z,45.00
2022-07-26T12:47:09.153Z,43.70
2022-07-26T12:49:54.923Z,43.40
2022-07-26T12:52:40.777Z,42.60
2022-07-26T12:55:26.347Z,42.70
2022-07-26T12:58:11.834Z,42.50
2022-07-26T13:00:57.473Z,43.20
2022-07-26T13:03:46.067Z,42.80
2022-07-26T13:06:32.890Z,43.00
2022-07-26T13:09:18.475Z,44.30
2022-07-26T13:12:05.638Z,44.50
2022-07-26T13:14:51.363Z,44.30
2022-07-26T13:17:36.882Z,44.80
2022-07-26T13:20:22.122Z,44.70
2022-07-26T13:23:13.726Z,44.40
2022-07-26T13:25:59.514Z,44.60
2022-07-26T13:28:44.768Z,43.60
2022-07-26T13:31:35.132Z,42.30
2022-07-26T13:34:22.965Z,43.00
2022-07-26T13:37:08.713Z,43.40
2022-07-26T13:39:54.232Z,43.60
2022-07-26T13:42:39.836Z,43.50
2022-07-26T13:45:25.112Z,43.30
2022-07-26T13:48:14.362Z,43.50
2022-07-26T13:50:59.659Z,43.90
2022-07-26T13:53:54.751Z,43.70
2022-07-26T13:56:42.696Z,43.30
2022-07-26T13:59:28.665Z,41.90
2022-07-26T14:02:13.951Z,42.60
2022-07-26T14:04:59.128Z,42.70
2022-07-26T14:07:44.487Z,41.80
2022-07-26T14:10:30.206Z,41.70
2022-07-26T14:13:15.412Z,41.60
2022-07-26T14:16:00.847Z,40.60
2022-07-26T14:18:46.454Z,40.70
2022-07-26T14:21:38.615Z,40.70
2022-07-26T14:24:34.027Z,41.00
2022-07-26T14:27:19.310Z,40.40
2022-07-26T14:30:05.717Z,39.30
2022-07-26T14:32:51.482Z,39.20
2022-07-26T14:35:36.775Z,39.20
2022-07-26T14:38:26.793Z,39.40
2022-07-26T14:41:15.640Z,39.00
2022-07-26T14:44:02.182Z,39.10
2022-07-26T14:46:47.542Z,38.40
2022-07-26T14:49:32.728Z,38.30
2022-07-26T14:52:17.961Z,38.70
2022-07-26T14:55:04.273Z,38.20
2022-07-26T14:57:49.510Z,38.20
2022-07-26T15:00:34.935Z,37.70
2022-07-26T15:03:20.608Z,38.50
2022-07-26T15:06:05.996Z,38.90
2022-07-26T15:08:51.448Z,38.60
2022-07-26T15:11:36.818Z,39.30
2022-07-26T15:14:22.215Z,40.40
2022-07-26T15:17:07.640Z,41.00
2022-07-26T15:19:52.930Z,41.40
2022-07-26T15:22:38.431Z,40.90
2022-07-26T15:25:24.287Z,41.40
2022-07-26T15:28:09.470Z,42.10
2022-07-26T15:30:55.039Z,42.70
2022-07-26T15:33:40.448Z,43.50
2022-07-26T15:36:25.811Z,44.10
2022-07-26T15:39:18.611Z,44.50
2022-07-26T15:42:07.849Z,44.40
2022-07-26T15:44:54.777Z,44.20
2022-07-26T15:48:03.334Z,44.50
2022-07-26T15:50:48.679Z,44.20
2022-07-26T15:53:35.574Z,44.00
2022-07-26T15:56:20.823Z,43.70
2022-07-26T15:59:09.185Z,43.40
2022-07-26T16:01:54.534Z,43.60
2022-07-26T16:04:39.800Z,43.70
2022-07-26T16:07:25.321Z,43.50
2022-07-26T16:10:12.534Z,43.50
2022-07-26T16:12:59.192Z,43.20
2022-07-26T16:15:45.131Z,42.90
2022-07-26T16:18:30.249Z,42.90
2022-07-26T16:21:15.671Z,42.40
2022-07-26T16:24:06.485Z,42.60
2022-07-26T16:26:53.202Z,42.60
2022-07-26T16:29:38.291Z,42.90
2022-07-26T16:32:23.587Z,42.80
2022-07-26T16:35:09.841Z,42.70
2022-07-26T16:37:55.139Z,42.70
2022-07-26T16:40:40.430Z,43.00
2022-07-26T16:43:25.734Z,43.40
2022-07-26T16:46:11.270Z,43.70
2022-07-26T16:48:56.678Z,44.00
2022-07-26T16:51:42.025Z,44.20
2022-07-26T16:54:27.402Z,43.90
2022-07-26T16:57:12.727Z,44.00
2022-07-26T16:59:58.215Z,44.10
2022-07-26T17:02:43.746Z,43.80
2022-07-26T17:05:29.158Z,44.00
2022-07-26T17:08:14.901Z,44.60
2022-07-26T17:11:00.243Z,44.80
2022-07-26T17:13:45.743Z,44.90
2022-07-26T17:16:31.659Z,44.80
2022-07-26T17:19:17.153Z,44.50
2022-07-26T17:22:02.449Z,44.50
2022-07-26T17:24:48.327Z,44.70
2022-07-26T17:27:35.369Z,44.40
2022-07-26T17:30:20.698Z,45.00
2022-07-26T17:33:06.257Z,45.10
2022-07-26T17:35:51.706Z,44.90
2022-07-26T17:38:37.032Z,44.70
2022-07-26T17:41:32.499Z,44.50
2022-07-26T17:44:19.065Z,44.40
2022-07-26T17:47:05.406Z,44.60
2022-07-26T17:53:15.587Z,45.80
2022-07-26T17:56:05.326Z,46.10
2022-07-26T17:58:50.652Z,46.70
2022-07-26T18:01:36.233Z,46.90
2022-07-26T18:04:21.481Z,46.60
2022-07-26T18:07:08.484Z,47.00
2022-07-26T18:09:54.006Z,47.30
2022-07-26T18:12:39.366Z,47.20
2022-07-26T18:15:24.587Z,47.20
2022-07-26T18:18:10.068Z,46.90
2022-07-26T18:20:55.468Z,46.80
2022-07-26T18:23:54.785Z,46.90
2022-07-26T18:26:46.095Z,46.80
2022-07-26T18:29:31.597Z,46.70
2022-07-26T18:32:16.859Z,46.70
2022-07-26T18:35:02.392Z,46.80
2022-07-26T18:37:47.727Z,46.70
2022-07-26T18:40:33.548Z,47.40
2022-07-26T18:43:18.883Z,47.50
2022-07-26T18:46:06.107Z,47.30
2022-07-26T18:48:52.608Z,46.90
2022-07-26T18:51:40.941Z,47.10
2022-07-26T18:54:26.020Z,47.00
2022-07-26T18:57:11.898Z,47.50
2022-07-26T18:59:56.963Z,47.80
2022-07-26T19:02:44.138Z,48.00
2022-07-26T19:05:34.484Z,47.90
2022-07-26T19:08:20.771Z,48.00
2022-07-26T19:11:06.168Z,48.10
2022-07-26T19:13:51.703Z,48.00
2022-07-26T19:16:37.057Z,48.10
2022-07-26T19:19:22.605Z,48.40
2022-07-26T19:22:07.901Z,48.30
2022-07-26T19:24:53.175Z,48.10
2022-07-26T19:27:38.756Z,48.10
2022-07-26T19:30:25.122Z,48.20
2022-07-26T19:33:12.035Z,48.30
2022-07-26T19:35:58.951Z,48.90
2022-07-26T19:38:44.248Z,49.00
2022-07-26T19:41:30.113Z,49.40
2022-07-26T19:44:16.279Z,49.20
2022-07-26T19:47:01.576Z,49.10
2022-07-26T19:49:47.007Z,49.30
2022-07-26T19:52:32.346Z,49.20
2022-07-26T19:55:17.883Z,48.50
2022-07-26T19:58:03.434Z,48.30
2022-07-26T20:00:48.820Z,48.80
2022-07-26T20:03:34.351Z,49.40
2022-07-26T20:06:19.875Z,49.80
2022-07-26T20:09:05.528Z,50.20
2022-07-26T20:11:51.176Z,50.10
2022-07-26T20:14:36.351Z,50.60
2022-07-26T20:17:23.180Z,50.60
2022-07-26T20:20:10.008Z,50.90
2022-07-26T20:22:55.277Z,50.70
2022-07-26T20:25:40.823Z,51.40
2022-07-26T20:28:26.436Z,51.20
2022-07-26T20:31:11.905Z,51.20
2022-07-26T20:33:57.269Z,51.30
2022-07-26T20:36:42.912Z,51.20
2022-07-26T20:39:29.066Z,51.60
2022-07-26T20:42:21.656Z,51.30
2022-07-26T20:45:11.527Z,51.20
2022-07-26T20:47:58.492Z,51.60
2022-07-26T20:50:43.938Z,52.40
2022-07-26T20:53:29.311Z,52.60
2022-07-26T20:56:14.678Z,53.20
2022-07-26T20:59:02.202Z,53.90
2022-07-26T21:01:47.629Z,54.30
2022-07-26T21:04:33.214Z,54.60
2022-07-26T21:07:18.709Z,54.60
2022-07-26T21:10:06.420Z,54.60
2022-07-26T21:12:52.979Z,54.90
2022-07-26T21:15:38.350Z,55.10
2022-07-26T21:18:25.820Z,55.30
2022-07-26T21:21:11.071Z,55.30
2022-07-26T21:23:56.555Z,55.60
2022-07-26T21:26:42.129Z,55.90
2022-07-26T21:29:32.672Z,56.20
2022-07-26T21:32:29.602Z,56.30
2022-07-26T21:35:16.710Z,56.60
2022-07-26T21:38:02.059Z,57.00
2022-07-26T21:40:47.568Z,57.40
2022-07-26T21:43:33.019Z,57.80
2022-07-26T21:46:18.589Z,58.00
2022-07-26T21:49:05.026Z,58.20
2022-07-26T21:51:50.632Z,58.20
2022-07-26T21:54:36.091Z,58.20
2022-07-26T21:57:21.674Z,58.30
2022-07-26T22:00:07.635Z,58.70
2022-07-26T22:02:52.828Z,58.80
2022-07-26T22:05:38.158Z,58.70
2022-07-26T22:08:23.571Z,58.60
2022-07-26T22:11:09.098Z,58.90
2022-07-26T22:13:55.046Z,59.00
2022-07-26T22:16:40.231Z,58.90
2022-07-26T22:19:25.512Z,59.00
2022-07-26T22:22:10.963Z,59.20
2022-07-26T22:24:56.372Z,59.40
2022-07-26T22:27:41.665Z,59.60
2022-07-26T22:30:29.791Z,59.50
2022-07-26T22:33:15.228Z,59.60
2022-07-26T22:36:00.286Z,59.60
2022-07-26T22:38:46.382Z,59.80
2022-07-26T22:41:32.620Z,59.60
2022-07-26T22:44:19.347Z,59.80
2022-07-26T22:47:04.782Z,60.10
2022-07-26T22:49:50.373Z,60.10
2022-07-26T22:52:36.243Z,60.10
2022-07-26T22:55:21.557Z,60.30
2022-07-26T22:58:07.016Z,60.30
2022-07-26T23:00:52.354Z,60.30
2022-07-26T23:03:38.276Z,60.50
2022-07-26T23:06:32.030Z,60.80
2022-07-26T23:09:17.739Z,60.90
2022-07-26T23:12:03.256Z,60.90
2022-07-26T23:14:48.371Z,61.10
2022-07-26T23:17:34.042Z,61.20
2022-07-26T23:20:21.330Z,61.50
2022-07-26T23:23:06.632Z,61.70
2022-07-26T23:25:51.980Z,61.80
2022-07-26T23:28:38.654Z,61.90
2022-07-26T23:31:24.840Z,61.90
2022-07-26T23:34:10.274Z,61.90
2022-07-26T23:36:55.758Z,61.90
2022-07-26T23:39:41.252Z,62.10
2022-07-26T23:42:26.570Z,62.20
2022-07-26T23:45:12.078Z,62.30
2022-07-26T23:47:57.414Z,62.10
2022-07-26T23:50:42.928Z,62.00
2022-07-26T23:53:28.238Z,62.00
2022-07-26T23:56:13.636Z,62.00
2022-07-26T23:58:59.041Z,62.00
